Terminal Aerodrome Forecast
Issued by NWS Charleston, WV

Current Version | Previous Version | Text Only | Print | Product List | Glossary Off
Versions: 1 2 3 4 5 6 7 8 9 10 11 12 13 14 15 16 17 18 19 20 21 22 23 24 25

000
FTUS41 KRLX 180536
TAFPKB
TAF
KPKB 180536Z 1806/1906 VRB03KT P6SM FEW070
     FM181600 17004KT P6SM BKN070
     FM190000 19004KT P6SM -SHRA BKN035
     FM190400 24009G15KT P6SM -SHRA BKN025=

USA.gov is the U.S. government's official web portal to all federal, state and local government web resources and services.